Time;durP1;ratioP1;P1;durP2;ratioP2;P2;SDS_P1;SDS_P2;PMS_P1;PMS_P2;Temp;Humidity;BMP_temperature;BMP_pressure;BME280_temperature;BME280_humidity;BME280_pressure;Samples;Min_cycle;Max_cycle;Signal;HPM_P1;HPM_P2
2023/01/02 00:00:36;;;;;;;5.23;2.90;;;10.50;99.90;;;;;;5014726;28;20199;-53
2023/01/02 00:03:04;;;;;;;4.43;3.13;;;10.50;99.90;;;;;;5042842;28;20712;-46
2023/01/02 00:05:30;;;;;;;5.50;2.60;;;10.50;99.90;;;;;;5027957;28;20242;-50
2023/01/02 00:07:57;;;;;;;7.77;2.73;;;10.50;99.90;;;;;;5025550;28;20925;-53
2023/01/02 00:10:24;;;;;;;7.67;3.00;;;10.50;99.90;;;;;;5031310;28;20227;-47
2023/01/02 00:12:51;;;;;;;3.87;2.73;;;10.50;99.90;;;;;;5024659;28;20206;-53
2023/01/02 00:15:18;;;;;;;5.93;2.73;;;10.50;99.90;;;;;;5020361;28;20220;-46
2023/01/02 00:17:46;;;;;;;7.70;2.90;;;10.50;99.90;;;;;;5034151;28;20204;-51
2023/01/02 00:20:13;;;;;;;6.13;2.50;;;10.50;99.90;;;;;;5029408;28;20192;-50
2023/01/02 00:22:40;;;;;;;4.93;2.50;;;10.50;99.90;;;;;;5028536;28;20206;-49
2023/01/02 00:25:07;;;;;;;6.77;2.90;;;10.50;99.90;;;;;;5020870;28;20234;-50
2023/01/02 00:27:35;;;;;;;6.67;2.60;;;10.50;99.90;;;;;;5024429;28;20207;-48
2023/01/02 00:30:02;;;;;;;4.67;3.20;;;10.50;99.90;;;;;;5010969;28;20817;-50
2023/01/02 00:32:29;;;;;;;7.50;2.27;;;10.50;99.90;;;;;;5035130;28;20192;-51
2023/01/02 00:34:58;;;;;;;4.57;2.70;;;10.50;99.90;;;;;;5020118;28;20275;-50
2023/01/02 00:37:24;;;;;;;4.30;2.60;;;10.50;99.90;;;;;;5024078;28;20204;-47
2023/01/02 00:39:51;;;;;;;6.40;2.57;;;10.40;99.90;;;;;;5017833;28;20208;-51
2023/01/02 00:42:17;;;;;;;6.87;2.83;;;10.40;99.90;;;;;;5024237;28;20694;-50
2023/01/02 00:44:44;;;;;;;6.63;2.87;;;10.40;99.90;;;;;;5012013;28;20208;-53
2023/01/02 00:47:11;;;;;;;4.47;2.80;;;10.40;99.90;;;;;;5026297;28;21061;-50
2023/01/02 00:49:38;;;;;;;5.20;2.80;;;10.30;99.90;;;;;;5037423;28;20207;-53
2023/01/02 00:52:06;;;;;;;7.50;3.10;;;10.30;99.90;;;;;;5022420;28;20207;-48
2023/01/02 00:54:33;;;;;;;3.00;2.60;;;10.30;99.90;;;;;;5023899;28;20199;-45
2023/01/02 00:57:00;;;;;;;4.57;2.90;;;10.30;99.90;;;;;;5021134;28;20882;-50
2023/01/02 00:59:27;;;;;;;6.67;3.23;;;10.20;99.90;;;;;;5024174;28;20203;-45
2023/01/02 01:01:54;;;;;;;4.63;3.03;;;10.20;99.90;;;;;;5014873;28;20204;-51
2023/01/02 01:04:20;;;;;;;8.67;2.87;;;10.20;99.90;;;;;;5030158;28;20254;-51
2023/01/02 01:06:48;;;;;;;5.73;2.97;;;10.20;99.90;;;;;;5021232;28;20236;-53
2023/01/02 01:09:16;;;;;;;5.53;3.03;;;10.20;99.90;;;;;;5022707;28;20258;-51
2023/01/02 01:11:43;;;;;;;6.80;2.90;;;10.30;99.90;;;;;;5020449;28;20212;-52
2023/01/02 01:14:11;;;;;;;5.63;3.00;;;10.20;99.90;;;;;;5027322;28;20247;-49
2023/01/02 01:16:37;;;;;;;4.17;2.97;;;10.20;99.90;;;;;;5025329;28;20223;-51
2023/01/02 01:19:04;;;;;;;4.57;3.70;;;10.20;99.90;;;;;;5026748;28;20190;-46
2023/01/02 01:21:31;;;;;;;5.53;3.17;;;10.20;99.90;;;;;;5022277;28;20195;-49
2023/01/02 01:23:58;;;;;;;4.70;3.60;;;10.20;99.90;;;;;;5019631;28;20192;-47
2023/01/02 01:26:26;;;;;;;8.60;3.70;;;10.20;99.90;;;;;;5020109;28;20223;-48
2023/01/02 01:28:54;;;;;;;5.07;3.00;;;10.20;99.90;;;;;;5019988;28;20207;-53
2023/01/02 01:31:20;;;;;;;6.13;3.03;;;10.20;99.90;;;;;;5012524;28;20695;-48
2023/01/02 01:33:47;;;;;;;7.60;3.17;;;10.20;99.90;;;;;;5022218;28;20208;-51
2023/01/02 01:36:18;;;;;;;6.90;3.53;;;10.20;99.90;;;;;;5022463;28;20613;-47
2023/01/02 01:38:46;;;;;;;7.70;3.70;;;10.20;99.90;;;;;;5021573;28;20706;-50
2023/01/02 01:41:15;;;;;;;6.03;3.03;;;10.20;99.90;;;;;;5022339;28;20199;-51
2023/01/02 01:43:44;;;;;;;6.83;3.80;;;10.20;99.90;;;;;;5032928;28;20210;-52
2023/01/02 01:46:21;;;;;;;5.87;2.97;;;10.20;99.90;;;;;;5014078;28;20220;-47
2023/01/02 01:48:53;;;;;;;6.60;3.60;;;10.20;99.90;;;;;;5041605;28;20203;-52
2023/01/02 01:51:20;;;;;;;5.43;3.60;;;10.20;99.90;;;;;;5027004;28;20220;-51
2023/01/02 01:53:51;;;;;;;8.67;3.90;;;10.20;99.90;;;;;;5024014;28;20204;-52
2023/01/02 01:56:18;;;;;;;4.23;3.30;;;10.20;99.90;;;;;;5026878;28;20745;-47
2023/01/02 01:58:46;;;;;;;9.90;4.20;;;10.20;99.90;;;;;;5021984;28;20200;-52
2023/01/02 02:01:15;;;;;;;7.83;3.43;;;10.20;99.90;;;;;;5012440;28;20216;-45
2023/01/02 02:03:45;;;;;;;7.77;3.90;;;10.20;99.90;;;;;;5032236;28;20260;-50
2023/01/02 02:06:12;;;;;;;6.63;3.83;;;10.20;99.90;;;;;;5025223;28;20208;-52
2023/01/02 02:08:45;;;;;;;5.60;3.63;;;10.20;99.90;;;;;;5026008;28;20196;-53
2023/01/02 02:11:13;;;;;;;5.40;4.30;;;10.20;99.90;;;;;;5024956;28;20208;-53
2023/01/02 02:13:41;;;;;;;8.03;4.07;;;10.20;99.90;;;;;;5029815;28;20196;-51
2023/01/02 02:16:19;;;;;;;7.33;4.23;;;10.20;99.90;;;;;;5023904;28;20254;-49
2023/01/02 02:19:06;;;;;;;5.30;3.63;;;10.20;99.90;;;;;;5030373;28;20211;-53
2023/01/02 02:21:53;;;;;;;5.20;3.70;;;10.20;99.90;;;;;;5031542;28;20193;-49
2023/01/02 02:24:43;;;;;;;5.07;3.50;;;10.20;99.90;;;;;;5037242;28;20197;-48
2023/01/02 02:27:32;;;;;;;4.43;3.67;;;10.20;99.90;;;;;;5023134;28;20216;-47
2023/01/02 02:30:13;;;;;;;9.40;4.07;;;10.20;99.90;;;;;;5020378;28;20279;-46
2023/01/02 02:32:59;;;;;;;5.30;3.60;;;10.20;99.90;;;;;;5022454;28;20250;-53
2023/01/02 02:35:33;;;;;;;6.60;4.23;;;10.30;99.90;;;;;;5029770;28;20737;-50
2023/01/02 02:38:05;;;;;;;5.70;4.40;;;10.20;99.90;;;;;;5035666;28;20248;-47
2023/01/02 02:40:42;;;;;;;8.60;4.23;;;10.30;99.90;;;;;;5045371;28;20309;-45
2023/01/02 02:43:17;;;;;;;6.83;4.13;;;10.20;99.90;;;;;;5042880;28;20948;-45
2023/01/02 02:45:54;;;;;;;7.10;3.60;;;10.30;99.90;;;;;;5029484;28;20235;-54
2023/01/02 02:48:28;;;;;;;7.63;3.83;;;10.30;99.90;;;;;;5023294;28;20207;-50
2023/01/02 02:51:02;;;;;;;8.23;3.83;;;10.30;99.90;;;;;;5032081;28;20219;-48
2023/01/02 02:53:35;;;;;;;5.90;4.33;;;10.30;99.90;;;;;;5028653;28;20210;-50
2023/01/02 02:56:07;;;;;;;7.10;3.70;;;10.30;99.90;;;;;;5022189;28;20492;-48
2023/01/02 02:58:35;;;;;;;7.80;5.17;;;10.40;99.90;;;;;;5026099;28;20208;-47
2023/01/02 03:01:06;;;;;;;8.67;4.33;;;10.40;99.90;;;;;;5019573;28;20196;-49
2023/01/02 03:03:34;;;;;;;5.97;4.27;;;10.40;99.90;;;;;;5016746;28;20204;-50
2023/01/02 03:06:08;;;;;;;8.27;4.43;;;10.40;99.90;;;;;;5030129;28;20215;-48
2023/01/02 03:08:42;;;;;;;6.50;4.10;;;10.40;99.90;;;;;;5025510;28;20593;-50
2023/01/02 03:11:10;;;;;;;8.93;4.70;;;10.40;99.90;;;;;;5023370;28;21019;-48
2023/01/02 03:13:43;;;;;;;6.23;4.50;;;10.40;99.90;;;;;;5024704;28;20196;-52
2023/01/02 03:16:19;;;;;;;6.87;4.30;;;10.50;99.90;;;;;;5029347;28;20227;-51
2023/01/02 03:18:54;;;;;;;5.83;4.00;;;10.50;99.90;;;;;;5025362;28;20211;-52
2023/01/02 03:21:27;;;;;;;8.33;4.37;;;10.40;99.90;;;;;;5026427;28;20191;-48
2023/01/02 03:23:58;;;;;;;11.33;4.53;;;10.40;99.90;;;;;;5025079;28;20206;-54
2023/01/02 03:26:29;;;;;;;8.17;4.13;;;10.50;99.90;;;;;;5039475;28;20280;-45
2023/01/02 03:29:01;;;;;;;6.60;4.03;;;10.50;99.90;;;;;;5021490;28;20199;-50
2023/01/02 03:31:33;;;;;;;8.70;4.10;;;10.50;99.90;;;;;;5025078;28;20230;-47
2023/01/02 03:34:06;;;;;;;7.00;4.23;;;10.40;99.90;;;;;;5006981;28;20215;-49
2023/01/02 03:36:37;;;;;;;7.20;4.30;;;10.50;99.90;;;;;;5035791;28;20219;-50
2023/01/02 03:39:09;;;;;;;6.17;4.20;;;10.50;99.90;;;;;;5024653;28;20210;-53
2023/01/02 03:42:03;;;;;;;7.93;4.33;;;10.50;99.90;;;;;;5035133;28;20206;-49
2023/01/02 03:44:37;;;;;;;5.53;4.30;;;10.50;99.90;;;;;;5044044;28;20192;-51
2023/01/02 03:47:14;;;;;;;7.67;4.60;;;10.50;99.90;;;;;;5040502;28;20219;-51
2023/01/02 03:49:46;;;;;;;4.83;3.90;;;10.50;99.90;;;;;;5021525;28;20667;-51
2023/01/02 03:52:14;;;;;;;7.23;4.37;;;10.60;99.90;;;;;;5027068;28;20221;-54
2023/01/02 03:54:41;;;;;;;8.97;3.70;;;10.50;99.90;;;;;;5030834;28;20203;-53
2023/01/02 03:57:14;;;;;;;6.63;4.17;;;10.60;99.90;;;;;;5029034;28;20219;-46
2023/01/02 03:59:48;;;;;;;8.40;4.20;;;10.60;99.90;;;;;;5023503;28;20204;-53
2023/01/02 04:02:25;;;;;;;5.83;4.20;;;10.60;99.90;;;;;;5034044;28;20202;-47
2023/01/02 04:04:56;;;;;;;8.20;3.93;;;10.60;99.90;;;;;;5011314;28;20205;-52
2023/01/02 04:07:28;;;;;;;6.70;3.77;;;10.70;99.90;;;;;;5030133;28;20199;-50
2023/01/02 04:09:56;;;;;;;7.10;3.90;;;10.70;99.90;;;;;;5017184;28;20200;-51
2023/01/02 04:12:24;;;;;;;6.93;3.73;;;10.70;99.90;;;;;;5024236;28;21201;-52
2023/01/02 04:14:58;;;;;;;5.37;3.70;;;10.80;99.90;;;;;;5021131;28;20215;-51
2023/01/02 04:17:30;;;;;;;6.70;4.00;;;10.80;99.90;;;;;;5024346;28;20222;-51
2023/01/02 04:20:00;;;;;;;6.87;3.90;;;10.80;99.90;;;;;;5006360;28;21729;-49
2023/01/02 04:22:30;;;;;;;5.73;4.03;;;10.90;99.90;;;;;;5034901;28;20218;-47
2023/01/02 04:25:04;;;;;;;5.67;3.80;;;10.90;99.90;;;;;;5021259;28;20958;-45
2023/01/02 04:27:34;;;;;;;7.40;3.57;;;10.90;99.90;;;;;;5024473;28;20364;-52
2023/01/02 04:30:02;;;;;;;7.97;4.30;;;11.00;99.90;;;;;;5020914;28;20978;-50
2023/01/02 04:32:34;;;;;;;8.03;4.80;;;11.00;99.90;;;;;;5025991;28;20219;-47
2023/01/02 04:35:05;;;;;;;8.40;3.87;;;11.10;99.90;;;;;;5025886;28;20191;-47
2023/01/02 04:37:35;;;;;;;9.27;4.30;;;11.10;99.90;;;;;;5015486;28;20223;-47
2023/01/02 04:40:05;;;;;;;8.47;4.80;;;11.20;99.90;;;;;;5024434;28;20192;-47
2023/01/02 04:42:32;;;;;;;11.70;5.20;;;11.30;99.90;;;;;;5035769;28;20199;-45
2023/01/02 04:44:59;;;;;;;11.60;4.90;;;11.30;99.90;;;;;;5025757;28;20203;-48
2023/01/02 04:47:26;;;;;;;9.37;4.70;;;11.40;99.90;;;;;;5024026;28;20580;-48
2023/01/02 04:49:54;;;;;;;9.67;4.63;;;11.50;99.90;;;;;;5020650;28;20206;-50
2023/01/02 04:52:21;;;;;;;7.70;4.57;;;11.50;99.90;;;;;;5013276;28;20219;-46
2023/01/02 04:54:48;;;;;;;9.57;5.10;;;11.50;99.90;;;;;;5023385;28;20705;-48
2023/01/02 04:57:15;;;;;;;12.17;5.00;;;11.60;99.90;;;;;;5030222;28;20204;-47
2023/01/02 04:59:42;;;;;;;10.43;4.53;;;11.70;99.90;;;;;;5022456;28;20701;-51
2023/01/02 05:02:10;;;;;;;7.13;4.17;;;11.70;99.90;;;;;;5022128;28;20286;-47
2023/01/02 05:04:37;;;;;;;7.93;3.63;;;11.80;99.90;;;;;;5025247;28;20675;-49
2023/01/02 05:07:05;;;;;;;10.67;3.80;;;11.80;99.90;;;;;;5016838;28;20208;-45
2023/01/02 05:09:32;;;;;;;9.30;4.33;;;11.80;99.90;;;;;;5029684;28;20220;-46
2023/01/02 05:11:59;;;;;;;7.83;4.20;;;11.80;99.90;;;;;;5021703;28;20215;-51
2023/01/02 05:14:26;;;;;;;9.23;3.67;;;11.90;99.90;;;;;;5026124;28;20196;-49
2023/01/02 05:16:53;;;;;;;8.53;3.63;;;11.90;99.90;;;;;;5028234;28;20613;-51
2023/01/02 05:19:20;;;;;;;7.23;3.63;;;11.90;99.90;;;;;;5033718;28;20207;-46
2023/01/02 05:24:33;;;;;;;8.40;3.60;;;11.90;99.90;;;;;;5036320;28;20203;-46
2023/01/02 05:26:59;;;;;;;6.97;3.77;;;11.90;99.90;;;;;;5021128;28;20261;-48
2023/01/02 05:29:26;;;;;;;10.80;4.17;;;11.90;99.90;;;;;;5028630;28;20200;-46
2023/01/02 05:31:53;;;;;;;9.40;3.80;;;11.90;99.90;;;;;;5023525;28;20211;-52
2023/01/02 05:34:20;;;;;;;8.23;3.70;;;12.00;99.90;;;;;;5026712;28;20204;-50
2023/01/02 05:36:47;;;;;;;6.17;3.40;;;12.00;99.90;;;;;;5015433;28;20216;-52
2023/01/02 05:39:14;;;;;;;8.17;3.77;;;12.00;99.90;;;;;;5025819;28;20279;-50
2023/01/02 05:41:43;;;;;;;8.63;4.30;;;12.00;99.90;;;;;;5032151;28;20200;-51
2023/01/02 05:44:10;;;;;;;6.83;4.30;;;12.00;99.90;;;;;;5029026;28;20203;-45
2023/01/02 05:46:38;;;;;;;5.73;3.30;;;12.00;99.90;;;;;;5036956;28;20681;-51
2023/01/02 05:49:06;;;;;;;10.93;5.20;;;12.00;99.90;;;;;;5026521;28;20360;-48
2023/01/02 05:51:34;;;;;;;10.13;4.53;;;12.00;99.90;;;;;;5027008;28;20211;-47
2023/01/02 05:54:01;;;;;;;7.67;3.83;;;12.00;99.90;;;;;;5016390;28;20879;-48
2023/01/02 05:56:29;;;;;;;9.20;4.20;;;12.00;99.90;;;;;;5034544;28;20220;-45
2023/01/02 05:58:57;;;;;;;7.47;3.67;;;12.00;99.90;;;;;;5019279;28;20199;-51
2023/01/02 06:01:26;;;;;;;7.03;4.10;;;12.00;99.90;;;;;;5027397;28;20200;-50
2023/01/02 06:03:56;;;;;;;7.60;3.60;;;12.00;99.90;;;;;;5023787;28;20202;-51
2023/01/02 06:06:26;;;;;;;6.27;3.67;;;12.00;99.90;;;;;;5036848;28;20212;-47
2023/01/02 06:08:53;;;;;;;9.80;5.23;;;12.00;99.90;;;;;;5027626;28;20681;-51
2023/01/02 06:11:20;;;;;;;7.70;3.83;;;12.00;99.90;;;;;;5033155;28;20211;-45
2023/01/02 06:13:47;;;;;;;9.17;3.60;;;12.00;99.90;;;;;;5029716;28;20204;-52
2023/01/02 06:16:15;;;;;;;12.03;4.90;;;12.10;99.90;;;;;;5030989;28;20220;-45
2023/01/02 06:18:42;;;;;;;11.73;5.13;;;12.10;99.90;;;;;;5037038;28;20234;-50
2023/01/02 06:21:11;;;;;;;9.47;4.33;;;12.10;99.90;;;;;;5036189;28;20187;-45
2023/01/02 06:23:39;;;;;;;12.73;5.00;;;12.10;99.90;;;;;;5025291;28;20206;-51
2023/01/02 06:26:08;;;;;;;13.07;6.50;;;12.10;99.90;;;;;;5025918;28;20211;-48
2023/01/02 06:28:35;;;;;;;14.27;6.27;;;12.10;99.90;;;;;;5029626;28;20210;-51
2023/01/02 06:31:04;;;;;;;11.50;5.27;;;12.10;99.90;;;;;;5020307;28;20914;-46
2023/01/02 06:33:33;;;;;;;12.77;5.23;;;12.10;99.90;;;;;;5026527;28;20721;-49
2023/01/02 06:36:02;;;;;;;11.37;5.10;;;12.10;99.90;;;;;;5035774;28;20211;-46
2023/01/02 06:38:28;;;;;;;7.90;4.30;;;12.10;99.90;;;;;;5026243;28;20725;-50
2023/01/02 06:40:57;;;;;;;9.77;4.40;;;12.10;99.90;;;;;;5012433;28;20200;-52
2023/01/02 06:43:25;;;;;;;8.37;4.10;;;12.10;99.90;;;;;;5032919;28;20701;-48
2023/01/02 06:45:52;;;;;;;14.67;6.10;;;12.00;99.90;;;;;;5032842;28;20583;-53
2023/01/02 06:48:20;;;;;;;13.73;5.70;;;12.00;99.90;;;;;;5042419;28;20231;-50
2023/01/02 06:50:48;;;;;;;11.07;5.20;;;12.00;99.90;;;;;;5030738;28;20242;-51
2023/01/02 06:53:15;;;;;;;14.47;6.17;;;12.00;99.90;;;;;;5025062;28;20758;-45
2023/01/02 06:55:51;;;;;;;13.20;5.10;;;12.00;99.90;;;;;;5015412;28;20279;-49
2023/01/02 06:58:18;;;;;;;10.73;4.80;;;12.00;99.90;;;;;;5035814;28;20191;-51
2023/01/02 07:00:44;;;;;;;8.67;5.27;;;12.00;99.90;;;;;;5023379;28;20204;-50
2023/01/02 07:03:11;;;;;;;9.57;5.27;;;12.00;99.90;;;;;;5037803;28;20992;-45
2023/01/02 07:05:38;;;;;;;10.23;5.03;;;12.00;99.90;;;;;;5027068;28;20228;-53
2023/01/02 07:08:06;;;;;;;7.43;5.13;;;12.00;99.90;;;;;;5021777;28;20364;-49
2023/01/02 07:10:33;;;;;;;11.33;5.27;;;12.00;99.90;;;;;;5044723;28;20225;-48
2023/01/02 07:12:59;;;;;;;8.63;5.27;;;12.00;99.90;;;;;;5017093;28;20208;-47
2023/01/02 07:15:26;;;;;;;12.37;5.27;;;12.00;99.90;;;;;;5039493;28;20226;-51
2023/01/02 07:17:53;;;;;;;7.57;4.67;;;12.00;99.90;;;;;;5029285;28;20199;-51
2023/01/02 07:20:20;;;;;;;11.27;6.23;;;12.00;99.90;;;;;;5031194;28;20608;-49
2023/01/02 07:22:49;;;;;;;11.13;6.30;;;12.00;99.90;;;;;;5023919;28;20192;-54
2023/01/02 07:25:17;;;;;;;13.90;6.40;;;12.00;99.90;;;;;;5028143;28;20216;-47
2023/01/02 07:27:45;;;;;;;9.60;5.70;;;12.00;99.90;;;;;;5017059;28;20329;-54
2023/01/02 07:30:13;;;;;;;15.53;7.10;;;12.00;99.90;;;;;;5029360;28;20203;-50
2023/01/02 07:32:39;;;;;;;8.30;4.97;;;12.00;99.90;;;;;;5031553;28;20211;-47
2023/01/02 07:35:07;;;;;;;5.47;4.90;;;12.00;99.90;;;;;;5026223;28;20232;-48
2023/01/02 07:37:34;;;;;;;8.33;4.87;;;12.10;99.90;;;;;;5027701;28;20195;-48
2023/01/02 07:40:01;;;;;;;8.87;4.80;;;12.10;99.90;;;;;;5024533;28;20200;-49
2023/01/02 07:42:29;;;;;;;11.90;6.53;;;12.10;99.90;;;;;;5014846;28;20203;-50
2023/01/02 07:44:56;;;;;;;13.30;6.73;;;12.10;99.90;;;;;;5028519;28;20273;-49
2023/01/02 07:47:23;;;;;;;8.70;4.60;;;12.10;99.90;;;;;;5040817;28;20368;-48
2023/01/02 07:49:50;;;;;;;14.17;6.50;;;12.10;99.90;;;;;;5024862;28;20766;-46
2023/01/02 07:52:16;;;;;;;10.73;5.77;;;12.10;99.90;;;;;;5023637;28;20242;-45
2023/01/02 07:54:43;;;;;;;14.23;4.73;;;12.10;99.90;;;;;;5023252;28;20200;-48
2023/01/02 07:57:10;;;;;;;5.90;4.10;;;12.20;99.90;;;;;;5010698;28;20334;-52
2023/01/02 07:59:38;;;;;;;10.07;5.10;;;12.20;99.90;;;;;;5025073;28;20265;-46
2023/01/02 08:02:05;;;;;;;9.67;5.10;;;12.20;99.90;;;;;;5018505;28;20199;-51
2023/01/02 08:04:32;;;;;;;7.43;4.63;;;12.20;99.90;;;;;;5026193;28;20203;-47
2023/01/02 08:06:58;;;;;;;7.30;4.43;;;12.20;99.90;;;;;;5031238;28;20231;-50
2023/01/02 08:09:25;;;;;;;11.10;5.60;;;12.20;99.90;;;;;;5036185;28;20187;-46
2023/01/02 08:11:52;;;;;;;8.50;4.33;;;12.20;99.90;;;;;;5021352;28;20204;-51
2023/01/02 08:14:19;;;;;;;9.00;4.23;;;12.20;99.90;;;;;;5026730;28;20195;-48
2023/01/02 08:16:47;;;;;;;11.67;5.47;;;12.20;99.90;;;;;;5032456;28;20238;-50
2023/01/02 08:19:14;;;;;;;11.70;5.00;;;12.30;99.90;;;;;;5023945;28;20914;-47
2023/01/02 08:21:41;;;;;;;10.47;5.03;;;12.30;99.90;;;;;;5031110;28;20218;-50
2023/01/02 08:24:08;;;;;;;10.40;5.47;;;12.30;99.90;;;;;;5031299;28;20199;-47
2023/01/02 08:26:35;;;;;;;8.73;4.03;;;12.30;99.90;;;;;;5024708;28;20599;-48
2023/01/02 08:29:02;;;;;;;8.50;3.70;;;12.30;99.90;;;;;;5018538;28;20206;-46
2023/01/02 08:31:29;;;;;;;8.50;4.53;;;12.30;99.90;;;;;;5030655;28;20278;-46
2023/01/02 08:33:57;;;;;;;8.83;5.53;;;12.30;99.90;;;;;;5020774;28;20253;-52
2023/01/02 08:36:24;;;;;;;10.23;4.60;;;12.40;99.90;;;;;;5024125;28;20227;-48
2023/01/02 08:38:51;;;;;;;8.43;4.20;;;12.40;99.90;;;;;;5018073;28;20223;-53
2023/01/02 08:41:30;;;;;;;7.77;5.07;;;12.40;99.90;;;;;;5020367;28;20313;-50
2023/01/02 08:43:57;;;;;;;12.27;5.10;;;12.40;99.90;;;;;;5011310;28;20203;-51
2023/01/02 08:46:24;;;;;;;10.00;4.80;;;12.40;99.90;;;;;;5027302;28;20642;-46
2023/01/02 08:48:52;;;;;;;10.87;5.23;;;12.40;99.90;;;;;;5028327;28;20207;-53
2023/01/02 08:51:20;;;;;;;6.83;4.10;;;12.40;99.90;;;;;;5021276;28;20612;-45
2023/01/02 08:53:47;;;;;;;7.10;4.63;;;12.40;99.90;;;;;;5026244;28;20219;-50
2023/01/02 08:56:19;;;;;;;9.17;5.57;;;12.50;99.90;;;;;;5031246;28;20215;-45
2023/01/02 08:58:50;;;;;;;5.73;3.90;;;12.50;99.90;;;;;;5015526;28;20678;-49
2023/01/02 09:01:21;;;;;;;10.90;4.70;;;12.50;99.90;;;;;;5027729;28;20199;-51
2023/01/02 09:03:47;;;;;;;8.30;4.60;;;12.50;99.90;;;;;;5023745;28;20269;-54
2023/01/02 09:06:14;;;;;;;9.07;4.80;;;12.50;99.90;;;;;;5029154;28;20840;-45
2023/01/02 09:08:42;;;;;;;5.47;4.37;;;12.50;99.90;;;;;;5024338;28;20226;-54
2023/01/02 09:11:11;;;;;;;9.83;4.23;;;12.50;99.90;;;;;;5026052;28;20203;-48
2023/01/02 09:13:38;;;;;;;8.27;4.20;;;12.50;99.90;;;;;;5014103;28;20229;-51
2023/01/02 09:16:05;;;;;;;8.83;4.70;;;12.50;99.90;;;;;;5023442;28;20954;-47
2023/01/02 09:18:32;;;;;;;6.67;4.93;;;12.60;99.90;;;;;;5028307;28;20206;-50
2023/01/02 09:20:59;;;;;;;6.57;4.40;;;12.60;99.90;;;;;;5030998;28;20199;-50
2023/01/02 09:23:29;;;;;;;5.63;4.50;;;12.60;99.90;;;;;;5025830;28;20228;-48
2023/01/02 09:25:59;;;;;;;6.13;4.37;;;12.60;99.90;;;;;;5038181;28;20273;-51
2023/01/02 09:28:26;;;;;;;7.17;3.70;;;12.60;99.90;;;;;;5017850;28;20298;-52
2023/01/02 09:30:53;;;;;;;8.60;4.50;;;12.70;99.90;;;;;;5036492;28;20203;-52
2023/01/02 09:33:19;;;;;;;8.03;4.73;;;12.70;99.90;;;;;;5032624;28;20301;-46
2023/01/02 09:35:46;;;;;;;5.20;4.40;;;12.70;99.90;;;;;;5038763;28;20635;-51
2023/01/02 09:38:15;;;;;;;7.50;5.13;;;12.70;99.90;;;;;;5018854;28;20203;-50
2023/01/02 09:40:49;;;;;;;7.60;4.40;;;12.70;99.90;;;;;;5030018;28;20201;-46
2023/01/02 09:43:26;;;;;;;6.43;4.10;;;12.80;99.90;;;;;;5013672;28;20215;-53
2023/01/02 09:45:58;;;;;;;6.33;4.77;;;12.80;99.90;;;;;;5038170;28;20629;-49
2023/01/02 09:48:31;;;;;;;8.10;4.23;;;12.80;99.90;;;;;;5033253;28;20207;-51
2023/01/02 09:50:59;;;;;;;8.27;5.50;;;12.80;99.90;;;;;;5030139;28;20207;-46
2023/01/02 09:53:26;;;;;;;5.90;4.80;;;12.90;99.90;;;;;;5026198;28;20211;-49
2023/01/02 09:55:56;;;;;;;7.83;4.97;;;12.90;99.90;;;;;;5035608;28;20269;-46
2023/01/02 09:58:51;;;;;;;6.13;4.87;;;12.90;99.90;;;;;;5001027;28;20219;-49
2023/01/02 10:01:26;;;;;;;11.67;5.20;;;12.90;99.90;;;;;;5029280;28;20192;-53
2023/01/02 10:04:04;;;;;;;10.07;5.73;;;12.90;99.90;;;;;;5023200;28;20206;-48
2023/01/02 10:06:37;;;;;;;6.87;4.33;;;13.00;99.90;;;;;;5042087;28;20219;-53
2023/01/02 10:09:11;;;;;;;8.33;5.13;;;13.00;99.90;;;;;;5034106;28;20212;-54
2023/01/02 10:11:53;;;;;;;7.37;3.73;;;13.00;99.90;;;;;;5029912;28;20199;-54
2023/01/02 10:14:32;;;;;;;7.83;4.53;;;13.00;99.90;;;;;;5021721;28;20222;-48
2023/01/02 10:17:01;;;;;;;5.47;3.47;;;13.00;99.90;;;;;;5036312;28;20230;-50
2023/01/02 10:19:42;;;;;;;7.50;4.97;;;13.00;99.90;;;;;;5034557;28;20585;-50
2023/01/02 10:22:16;;;;;;;6.37;3.90;;;13.10;99.90;;;;;;5027653;28;20306;-47
2023/01/02 10:24:47;;;;;;;8.37;4.47;;;13.10;99.90;;;;;;5021532;28;20196;-51
2023/01/02 10:27:18;;;;;;;6.23;4.83;;;13.10;99.90;;;;;;5024314;28;20762;-51
2023/01/02 10:29:53;;;;;;;6.77;3.40;;;13.10;99.90;;;;;;5012917;28;20574;-52
2023/01/02 10:32:21;;;;;;;7.07;4.33;;;13.10;99.90;;;;;;5029739;28;20203;-54
2023/01/02 10:34:56;;;;;;;5.53;3.97;;;13.10;99.90;;;;;;5020978;28;20270;-52
2023/01/02 10:37:26;;;;;;;6.77;3.17;;;13.20;99.90;;;;;;5045498;28;20277;-52
2023/01/02 10:39:53;;;;;;;5.27;3.80;;;13.10;99.90;;;;;;5041568;28;20238;-48
2023/01/02 10:42:42;;;;;;;5.90;3.77;;;13.10;99.90;;;;;;5029386;28;20801;-51
2023/01/02 10:45:15;;;;;;;4.20;3.70;;;13.10;99.90;;;;;;5020221;28;20211;-51
2023/01/02 10:47:43;;;;;;;5.37;3.70;;;13.10;99.90;;;;;;5025577;28;20199;-53
2023/01/02 10:50:16;;;;;;;4.47;2.87;;;13.10;99.90;;;;;;5021550;28;20305;-50
2023/01/02 10:52:48;;;;;;;3.87;3.13;;;13.00;99.90;;;;;;5023063;28;20214;-50
2023/01/02 10:55:29;;;;;;;5.23;3.40;;;13.00;99.90;;;;;;5026207;28;20299;-51
2023/01/02 10:58:02;;;;;;;8.87;3.90;;;13.00;99.90;;;;;;5022594;28;20202;-51
2023/01/02 11:00:32;;;;;;;6.27;3.20;;;13.00;99.90;;;;;;5013051;28;20662;-54
2023/01/02 11:03:00;;;;;;;3.93;2.30;;;12.90;99.90;;;;;;5033863;28;20199;-47
2023/01/02 11:05:29;;;;;;;6.10;3.40;;;12.90;99.90;;;;;;5025828;28;20580;-50
2023/01/02 11:07:57;;;;;;;6.40;3.73;;;12.80;99.90;;;;;;5023001;28;20207;-51
2023/01/02 11:10:27;;;;;;;5.07;3.17;;;12.70;99.90;;;;;;5025663;28;20204;-52
2023/01/02 11:12:54;;;;;;;4.50;3.40;;;12.70;99.90;;;;;;5034218;28;20230;-52
2023/01/02 11:15:26;;;;;;;5.43;3.63;;;12.60;99.90;;;;;;5015930;28;20272;-51
2023/01/02 11:17:54;;;;;;;5.83;3.80;;;12.60;99.90;;;;;;5031030;28;20903;-51
2023/01/02 11:20:26;;;;;;;4.13;3.53;;;12.50;99.90;;;;;;5025393;28;20208;-47
2023/01/02 11:22:56;;;;;;;4.03;3.30;;;12.40;99.90;;;;;;5017847;28;20289;-52
2023/01/02 11:25:25;;;;;;;4.60;2.93;;;12.40;99.90;;;;;;5025466;28;20220;-53
2023/01/02 11:27:56;;;;;;;7.30;2.77;;;12.30;99.90;;;;;;5021531;28;20200;-50
2023/01/02 11:30:36;;;;;;;3.20;2.70;;;12.30;99.90;;;;;;5015662;28;20284;-50
2023/01/02 11:33:18;;;;;;;3.50;2.10;;;12.20;99.90;;;;;;5027429;28;20926;-49
2023/01/02 11:35:48;;;;;;;1.47;0.93;;;12.10;99.90;;;;;;5021863;28;20223;-55
2023/01/02 11:38:16;;;;;;;0.50;0.50;;;12.00;99.90;;;;;;5026295;28;20605;-47
2023/01/02 11:40:58;;;;;;;0.40;0.40;;;11.80;99.90;;;;;;5023479;28;20204;-49
2023/01/02 11:43:48;;;;;;;0.43;0.43;;;11.50;99.90;;;;;;5039488;28;20188;-49
2023/01/02 11:46:30;;;;;;;0.50;0.50;;;11.30;99.90;;;;;;5027158;28;20230;-51
2023/01/02 11:49:06;;;;;;;0.57;0.57;;;11.20;99.90;;;;;;5032714;28;20187;-48
2023/01/02 11:51:36;;;;;;;0.40;0.40;;;11.00;99.90;;;;;;5023985;28;20200;-53
2023/01/02 11:54:06;;;;;;;0.80;0.43;;;10.90;99.90;;;;;;5020500;28;20212;-52
2023/01/02 11:56:35;;;;;;;0.50;0.50;;;10.80;99.90;;;;;;5022492;28;20712;-50
2023/01/02 11:59:04;;;;;;;0.70;0.70;;;10.70;99.90;;;;;;5022600;28;20200;-51
2023/01/02 12:01:41;;;;;;;0.63;0.60;;;10.60;99.90;;;;;;5016154;28;20277;-52
2023/01/02 12:04:12;;;;;;;2.57;0.90;;;10.60;99.90;;;;;;5026722;28;20246;-54
2023/01/02 12:07:04;;;;;;;0.80;0.80;;;10.50;99.90;;;;;;5022725;28;20223;-53
2023/01/02 12:09:39;;;;;;;2.50;0.70;;;10.50;99.90;;;;;;5025415;28;20207;-51
2023/01/02 12:12:24;;;;;;;2.47;1.03;;;10.40;99.90;;;;;;5038495;28;20953;-52
2023/01/02 12:15:19;;;;;;;1.60;0.83;;;10.30;99.90;;;;;;5039655;28;20835;-53
2023/01/02 12:17:52;;;;;;;1.70;0.90;;;10.20;99.90;;;;;;5016746;28;20214;-54
2023/01/02 12:20:31;;;;;;;1.20;1.00;;;10.10;99.90;;;;;;5035367;28;20204;-52
2023/01/02 12:23:22;;;;;;;1.17;0.90;;;10.10;99.90;;;;;;5021135;28;20202;-50
2023/01/02 12:25:59;;;;;;;1.87;0.87;;;10.10;99.90;;;;;;5012373;28;20231;-52
2023/01/02 12:28:40;;;;;;;1.20;0.83;;;10.10;99.90;;;;;;5024168;28;20624;-49
2023/01/02 12:31:22;;;;;;;0.70;0.60;;;10.00;99.90;;;;;;5023026;28;20220;-52
2023/01/02 12:33:59;;;;;;;0.67;0.67;;;10.00;99.90;;;;;;5017734;28;20977;-50
2023/01/02 12:36:38;;;;;;;0.50;0.50;;;9.90;99.90;;;;;;5025146;28;20259;-51
2023/01/02 12:39:31;;;;;;;0.67;0.60;;;9.80;99.90;;;;;;5022381;28;20206;-50
2023/01/02 12:42:12;;;;;;;1.67;0.80;;;9.80;99.90;;;;;;5022674;28;20238;-49
2023/01/02 12:44:49;;;;;;;0.93;0.63;;;9.70;99.90;;;;;;5035967;28;20203;-54
2023/01/02 12:47:32;;;;;;;0.50;0.50;;;9.70;99.90;;;;;;5026259;28;20226;-51
2023/01/02 12:50:28;;;;;;;0.93;0.60;;;9.70;99.90;;;;;;5024550;28;20847;-52
2023/01/02 12:53:11;;;;;;;0.70;0.70;;;9.70;99.90;;;;;;5022186;28;20218;-50
2023/01/02 12:55:48;;;;;;;0.63;0.63;;;9.60;99.90;;;;;;5020972;28;20219;-52
2023/01/02 12:58:27;;;;;;;0.60;0.60;;;9.50;99.90;;;;;;5023887;28;20250;-52
2023/01/02 13:01:03;;;;;;;1.30;0.50;;;9.50;99.90;;;;;;5020266;28;20939;-50
2023/01/02 13:03:58;;;;;;;0.83;0.63;;;9.40;99.90;;;;;;5015413;28;20211;-54
2023/01/02 13:06:27;;;;;;;0.80;0.80;;;9.40;99.90;;;;;;5028469;28;20709;-48